sensor_id;sensor_type;location;lat;lon;timestamp;temperature;humidity
4505;DHT22;2265;48.794;9.520;2023-11-22T00:02:16;9.40;98.00
4505;DHT22;2265;48.794;9.520;2023-11-22T00:04:44;9.40;98.00
4505;DHT22;2265;48.794;9.520;2023-11-22T00:07:13;9.40;98.00
4505;DHT22;2265;48.794;9.520;2023-11-22T00:09:40;9.40;98.00
4505;DHT22;2265;48.794;9.520;2023-11-22T00:12:07;9.30;98.00
4505;DHT22;2265;48.794;9.520;2023-11-22T00:14:35;9.20;98.00
4505;DHT22;2265;48.794;9.520;2023-11-22T00:17:02;9.10;98.00
4505;DHT22;2265;48.794;9.520;2023-11-22T00:19:29;9.10;98.00
4505;DHT22;2265;48.794;9.520;2023-11-22T00:22:12;9.00;98.00
4505;DHT22;2265;48.794;9.520;2023-11-22T00:24:40;9.00;98.00
4505;DHT22;2265;48.794;9.520;2023-11-22T00:27:07;8.90;98.00
4505;DHT22;2265;48.794;9.520;2023-11-22T00:29:36;8.90;98.00
4505;DHT22;2265;48.794;9.520;2023-11-22T00:32:04;8.80;98.00
4505;DHT22;2265;48.794;9.520;2023-11-22T00:34:31;8.50;98.00
4505;DHT22;2265;48.794;9.520;2023-11-22T00:36:58;8.50;98.00
4505;DHT22;2265;48.794;9.520;2023-11-22T00:39:26;8.30;98.00
4505;DHT22;2265;48.794;9.520;2023-11-22T00:41:53;8.40;98.00
4505;DHT22;2265;48.794;9.520;2023-11-22T00:44:21;8.40;98.00
4505;DHT22;2265;48.794;9.520;2023-11-22T00:46:48;8.40;98.00
4505;DHT22;2265;48.794;9.520;2023-11-22T00:49:15;8.30;98.00
4505;DHT22;2265;48.794;9.520;2023-11-22T00:51:43;8.30;98.00
4505;DHT22;2265;48.794;9.520;2023-11-22T00:54:10;8.20;98.00
4505;DHT22;2265;48.794;9.520;2023-11-22T00:56:39;8.10;98.00
4505;DHT22;2265;48.794;9.520;2023-11-22T00:59:06;8.10;98.00
4505;DHT22;2265;48.794;9.520;2023-11-22T01:01:34;8.10;98.00
4505;DHT22;2265;48.794;9.520;2023-11-22T01:04:01;8.10;98.00
4505;DHT22;2265;48.794;9.520;2023-11-22T01:06:28;8.00;98.00
4505;DHT22;2265;48.794;9.520;2023-11-22T01:08:58;8.00;98.00
4505;DHT22;2265;48.794;9.520;2023-11-22T01:11:25;7.90;98.00
4505;DHT22;2265;48.794;9.520;2023-11-22T01:13:53;7.80;98.00
4505;DHT22;2265;48.794;9.520;2023-11-22T01:16:20;7.80;98.00
4505;DHT22;2265;48.794;9.520;2023-11-22T01:18:48;7.80;98.00
4505;DHT22;2265;48.794;9.520;2023-11-22T01:21:15;7.90;98.00
4505;DHT22;2265;48.794;9.520;2023-11-22T01:23:42;7.80;98.00
4505;DHT22;2265;48.794;9.520;2023-11-22T01:26:11;7.80;98.00
4505;DHT22;2265;48.794;9.520;2023-11-22T01:28:38;7.90;98.00
4505;DHT22;2265;48.794;9.520;2023-11-22T01:31:12;7.90;98.00
4505;DHT22;2265;48.794;9.520;2023-11-22T01:33:39;7.80;98.00
4505;DHT22;2265;48.794;9.520;2023-11-22T01:36:07;7.70;98.00
4505;DHT22;2265;48.794;9.520;2023-11-22T01:38:36;7.70;98.00
4505;DHT22;2265;48.794;9.520;2023-11-22T01:41:04;7.70;98.00
4505;DHT22;2265;48.794;9.520;2023-11-22T01:43:46;7.60;98.00
4505;DHT22;2265;48.794;9.520;2023-11-22T01:46:21;7.70;98.00
4505;DHT22;2265;48.794;9.520;2023-11-22T01:48:49;7.70;98.00
4505;DHT22;2265;48.794;9.520;2023-11-22T01:51:18;7.70;98.00
4505;DHT22;2265;48.794;9.520;2023-11-22T01:53:47;7.70;98.00
4505;DHT22;2265;48.794;9.520;2023-11-22T01:56:14;7.60;98.00
4505;DHT22;2265;48.794;9.520;2023-11-22T01:58:43;7.50;98.00
4505;DHT22;2265;48.794;9.520;2023-11-22T02:01:11;7.40;98.00
4505;DHT22;2265;48.794;9.520;2023-11-22T02:03:41;7.40;98.00
4505;DHT22;2265;48.794;9.520;2023-11-22T02:06:09;7.30;98.00
4505;DHT22;2265;48.794;9.520;2023-11-22T02:08:36;7.30;98.00
4505;DHT22;2265;48.794;9.520;2023-11-22T02:11:03;7.30;98.00
4505;DHT22;2265;48.794;9.520;2023-11-22T02:13:32;7.40;98.00
4505;DHT22;2265;48.794;9.520;2023-11-22T02:15:59;7.20;98.00
4505;DHT22;2265;48.794;9.520;2023-11-22T02:18:27;7.20;98.00
4505;DHT22;2265;48.794;9.520;2023-11-22T02:20:56;7.30;98.00
4505;DHT22;2265;48.794;9.520;2023-11-22T02:23:25;7.30;98.00
4505;DHT22;2265;48.794;9.520;2023-11-22T02:25:52;7.30;98.00
4505;DHT22;2265;48.794;9.520;2023-11-22T02:28:19;7.30;98.00
4505;DHT22;2265;48.794;9.520;2023-11-22T02:30:47;7.30;98.00
4505;DHT22;2265;48.794;9.520;2023-11-22T02:33:14;7.40;98.00
4505;DHT22;2265;48.794;9.520;2023-11-22T02:35:41;7.30;98.00
4505;DHT22;2265;48.794;9.520;2023-11-22T02:38:08;7.30;98.00
4505;DHT22;2265;48.794;9.520;2023-11-22T02:40:37;7.30;98.00
4505;DHT22;2265;48.794;9.520;2023-11-22T02:43:04;7.20;98.00
4505;DHT22;2265;48.794;9.520;2023-11-22T02:45:35;7.20;98.00
4505;DHT22;2265;48.794;9.520;2023-11-22T02:48:02;7.20;98.00
4505;DHT22;2265;48.794;9.520;2023-11-22T02:50:30;7.20;98.00
4505;DHT22;2265;48.794;9.520;2023-11-22T02:53:00;7.10;98.00
4505;DHT22;2265;48.794;9.520;2023-11-22T02:55:27;6.90;98.00
4505;DHT22;2265;48.794;9.520;2023-11-22T02:57:56;6.80;98.00
4505;DHT22;2265;48.794;9.520;2023-11-22T03:00:23;6.60;98.00
4505;DHT22;2265;48.794;9.520;2023-11-22T03:02:51;6.60;98.00
4505;DHT22;2265;48.794;9.520;2023-11-22T03:05:19;6.60;98.00
4505;DHT22;2265;48.794;9.520;2023-11-22T03:07:47;6.60;98.00
4505;DHT22;2265;48.794;9.520;2023-11-22T03:10:16;6.60;98.00
4505;DHT22;2265;48.794;9.520;2023-11-22T03:12:45;6.50;98.00
4505;DHT22;2265;48.794;9.520;2023-11-22T03:15:13;6.40;98.00
4505;DHT22;2265;48.794;9.520;2023-11-22T03:17:41;6.50;98.00
4505;DHT22;2265;48.794;9.520;2023-11-22T03:20:10;6.40;98.00
4505;DHT22;2265;48.794;9.520;2023-11-22T03:22:37;6.30;98.00
4505;DHT22;2265;48.794;9.520;2023-11-22T03:25:06;6.20;98.00
4505;DHT22;2265;48.794;9.520;2023-11-22T03:27:35;6.10;98.00
4505;DHT22;2265;48.794;9.520;2023-11-22T03:30:03;6.20;98.00
4505;DHT22;2265;48.794;9.520;2023-11-22T03:32:32;6.30;98.00
4505;DHT22;2265;48.794;9.520;2023-11-22T03:35:03;6.40;98.00
4505;DHT22;2265;48.794;9.520;2023-11-22T03:37:30;6.50;98.00
4505;DHT22;2265;48.794;9.520;2023-11-22T03:39:58;6.50;98.00
4505;DHT22;2265;48.794;9.520;2023-11-22T03:42:25;6.30;98.00
4505;DHT22;2265;48.794;9.520;2023-11-22T03:44:53;6.40;98.00
4505;DHT22;2265;48.794;9.520;2023-11-22T03:47:20;6.40;98.00
4505;DHT22;2265;48.794;9.520;2023-11-22T03:49:48;6.50;98.00
4505;DHT22;2265;48.794;9.520;2023-11-22T03:52:15;6.40;98.00
4505;DHT22;2265;48.794;9.520;2023-11-22T03:54:42;6.40;98.00
4505;DHT22;2265;48.794;9.520;2023-11-22T03:57:09;6.40;98.00
4505;DHT22;2265;48.794;9.520;2023-11-22T03:59:37;6.30;98.00
4505;DHT22;2265;48.794;9.520;2023-11-22T04:02:04;6.20;98.00
4505;DHT22;2265;48.794;9.520;2023-11-22T04:04:35;6.10;98.00
4505;DHT22;2265;48.794;9.520;2023-11-22T04:07:04;6.20;98.00
4505;DHT22;2265;48.794;9.520;2023-11-22T04:09:31;6.20;98.00
4505;DHT22;2265;48.794;9.520;2023-11-22T04:11:59;6.10;98.00
4505;DHT22;2265;48.794;9.520;2023-11-22T04:14:26;6.10;98.00
4505;DHT22;2265;48.794;9.520;2023-11-22T04:16:53;6.00;98.00
4505;DHT22;2265;48.794;9.520;2023-11-22T04:19:20;5.90;98.00
4505;DHT22;2265;48.794;9.520;2023-11-22T04:21:47;5.90;98.00
4505;DHT22;2265;48.794;9.520;2023-11-22T04:24:16;5.90;98.00
4505;DHT22;2265;48.794;9.520;2023-11-22T04:26:43;6.00;98.00
4505;DHT22;2265;48.794;9.520;2023-11-22T04:29:10;6.00;98.00
4505;DHT22;2265;48.794;9.520;2023-11-22T04:31:39;6.00;98.00
4505;DHT22;2265;48.794;9.520;2023-11-22T04:34:06;6.00;98.00
4505;DHT22;2265;48.794;9.520;2023-11-22T04:36:33;6.00;98.00
4505;DHT22;2265;48.794;9.520;2023-11-22T04:39:00;5.90;98.00
4505;DHT22;2265;48.794;9.520;2023-11-22T04:41:30;5.90;98.00
4505;DHT22;2265;48.794;9.520;2023-11-22T04:43:57;6.00;98.00
4505;DHT22;2265;48.794;9.520;2023-11-22T04:46:24;5.90;98.00
4505;DHT22;2265;48.794;9.520;2023-11-22T04:48:51;5.90;98.00
4505;DHT22;2265;48.794;9.520;2023-11-22T04:51:21;5.90;98.00
4505;DHT22;2265;48.794;9.520;2023-11-22T04:53:50;6.00;98.00
4505;DHT22;2265;48.794;9.520;2023-11-22T04:56:17;5.90;98.00
4505;DHT22;2265;48.794;9.520;2023-11-22T04:58:45;5.90;98.00
4505;DHT22;2265;48.794;9.520;2023-11-22T05:01:12;5.80;98.00
4505;DHT22;2265;48.794;9.520;2023-11-22T05:03:40;5.80;98.00
4505;DHT22;2265;48.794;9.520;2023-11-22T05:06:07;5.80;98.00
4505;DHT22;2265;48.794;9.520;2023-11-22T05:08:34;5.70;98.00
4505;DHT22;2265;48.794;9.520;2023-11-22T05:11:01;5.70;98.00
4505;DHT22;2265;48.794;9.520;2023-11-22T05:13:28;5.70;98.00
4505;DHT22;2265;48.794;9.520;2023-11-22T05:15:57;5.80;98.00
4505;DHT22;2265;48.794;9.520;2023-11-22T05:18:24;5.90;98.00
4505;DHT22;2265;48.794;9.520;2023-11-22T05:20:52;5.80;98.00
4505;DHT22;2265;48.794;9.520;2023-11-22T05:23:19;5.80;98.00
4505;DHT22;2265;48.794;9.520;2023-11-22T05:25:46;5.80;98.00
4505;DHT22;2265;48.794;9.520;2023-11-22T05:28:16;5.70;98.00
4505;DHT22;2265;48.794;9.520;2023-11-22T05:30:46;5.60;98.00
4505;DHT22;2265;48.794;9.520;2023-11-22T05:33:15;5.50;98.00
4505;DHT22;2265;48.794;9.520;2023-11-22T05:35:43;5.50;98.00
4505;DHT22;2265;48.794;9.520;2023-11-22T05:38:10;5.50;98.00
4505;DHT22;2265;48.794;9.520;2023-11-22T05:40:38;5.50;98.00
4505;DHT22;2265;48.794;9.520;2023-11-22T05:43:07;5.50;98.00
4505;DHT22;2265;48.794;9.520;2023-11-22T05:45:35;5.50;98.00
4505;DHT22;2265;48.794;9.520;2023-11-22T05:48:02;5.50;98.00
4505;DHT22;2265;48.794;9.520;2023-11-22T05:50:31;5.50;98.00
4505;DHT22;2265;48.794;9.520;2023-11-22T05:52:58;5.50;98.00
4505;DHT22;2265;48.794;9.520;2023-11-22T05:55:25;5.60;98.00
4505;DHT22;2265;48.794;9.520;2023-11-22T05:57:53;5.50;98.00
4505;DHT22;2265;48.794;9.520;2023-11-22T06:00:20;5.60;98.00
4505;DHT22;2265;48.794;9.520;2023-11-22T06:02:47;5.70;98.00
4505;DHT22;2265;48.794;9.520;2023-11-22T06:05:15;5.70;98.00
4505;DHT22;2265;48.794;9.520;2023-11-22T06:07:43;5.60;98.00
4505;DHT22;2265;48.794;9.520;2023-11-22T06:10:10;5.60;98.00
4505;DHT22;2265;48.794;9.520;2023-11-22T06:12:38;5.60;98.00
4505;DHT22;2265;48.794;9.520;2023-11-22T06:15:06;5.60;98.00
4505;DHT22;2265;48.794;9.520;2023-11-22T06:17:35;5.50;98.00
4505;DHT22;2265;48.794;9.520;2023-11-22T06:20:02;5.50;98.00
4505;DHT22;2265;48.794;9.520;2023-11-22T06:22:30;5.50;98.00
4505;DHT22;2265;48.794;9.520;2023-11-22T06:24:59;5.50;98.00
4505;DHT22;2265;48.794;9.520;2023-11-22T06:27:26;5.60;98.00
4505;DHT22;2265;48.794;9.520;2023-11-22T06:29:53;5.60;98.00
4505;DHT22;2265;48.794;9.520;2023-11-22T06:32:20;5.60;98.00
4505;DHT22;2265;48.794;9.520;2023-11-22T06:34:47;5.60;98.00
4505;DHT22;2265;48.794;9.520;2023-11-22T06:37:22;5.60;98.00
4505;DHT22;2265;48.794;9.520;2023-11-22T06:39:52;5.60;98.00
4505;DHT22;2265;48.794;9.520;2023-11-22T06:42:21;5.60;98.00
4505;DHT22;2265;48.794;9.520;2023-11-22T06:44:48;5.60;98.00
4505;DHT22;2265;48.794;9.520;2023-11-22T06:47:16;5.60;98.00
4505;DHT22;2265;48.794;9.520;2023-11-22T06:49:43;5.50;98.00
4505;DHT22;2265;48.794;9.520;2023-11-22T06:52:10;5.40;98.00
4505;DHT22;2265;48.794;9.520;2023-11-22T06:54:38;5.50;98.00
4505;DHT22;2265;48.794;9.520;2023-11-22T06:57:05;5.50;98.00
4505;DHT22;2265;48.794;9.520;2023-11-22T06:59:34;5.50;98.00
4505;DHT22;2265;48.794;9.520;2023-11-22T07:02:01;5.50;98.00
4505;DHT22;2265;48.794;9.520;2023-11-22T07:04:29;5.60;98.00
4505;DHT22;2265;48.794;9.520;2023-11-22T07:06:56;5.60;98.00
4505;DHT22;2265;48.794;9.520;2023-11-22T07:09:23;5.60;98.00
4505;DHT22;2265;48.794;9.520;2023-11-22T07:11:50;5.70;98.00
4505;DHT22;2265;48.794;9.520;2023-11-22T07:14:18;5.70;98.00
4505;DHT22;2265;48.794;9.520;2023-11-22T07:16:46;5.60;98.00
4505;DHT22;2265;48.794;9.520;2023-11-22T07:19:14;5.60;98.00
4505;DHT22;2265;48.794;9.520;2023-11-22T07:21:41;5.70;98.00
4505;DHT22;2265;48.794;9.520;2023-11-22T07:24:08;5.80;98.00
4505;DHT22;2265;48.794;9.520;2023-11-22T07:26:39;5.80;98.00
4505;DHT22;2265;48.794;9.520;2023-11-22T07:29:06;5.70;98.00
4505;DHT22;2265;48.794;9.520;2023-11-22T07:31:34;5.70;98.00
4505;DHT22;2265;48.794;9.520;2023-11-22T07:34:03;5.70;98.00
4505;DHT22;2265;48.794;9.520;2023-11-22T07:36:32;5.80;98.00
4505;DHT22;2265;48.794;9.520;2023-11-22T07:39:03;5.80;98.00
4505;DHT22;2265;48.794;9.520;2023-11-22T07:41:31;5.80;98.00
4505;DHT22;2265;48.794;9.520;2023-11-22T07:44:00;5.90;98.00
4505;DHT22;2265;48.794;9.520;2023-11-22T07:46:27;5.90;98.00
4505;DHT22;2265;48.794;9.520;2023-11-22T07:48:55;5.80;98.00
4505;DHT22;2265;48.794;9.520;2023-11-22T07:51:24;5.90;98.00
4505;DHT22;2265;48.794;9.520;2023-11-22T07:53:53;5.80;98.00
4505;DHT22;2265;48.794;9.520;2023-11-22T07:56:21;5.80;98.00
4505;DHT22;2265;48.794;9.520;2023-11-22T07:58:48;5.80;98.00
4505;DHT22;2265;48.794;9.520;2023-11-22T08:01:24;5.90;98.00
4505;DHT22;2265;48.794;9.520;2023-11-22T08:03:51;5.90;98.00
4505;DHT22;2265;48.794;9.520;2023-11-22T08:06:18;5.80;98.00
4505;DHT22;2265;48.794;9.520;2023-11-22T08:08:47;5.80;98.00
4505;DHT22;2265;48.794;9.520;2023-11-22T08:11:15;5.70;98.00
4505;DHT22;2265;48.794;9.520;2023-11-22T08:13:43;5.70;98.00
4505;DHT22;2265;48.794;9.520;2023-11-22T08:16:10;5.70;98.00
4505;DHT22;2265;48.794;9.520;2023-11-22T08:18:38;5.80;98.00
4505;DHT22;2265;48.794;9.520;2023-11-22T08:21:06;5.90;98.00
4505;DHT22;2265;48.794;9.520;2023-11-22T08:23:34;5.90;98.00
4505;DHT22;2265;48.794;9.520;2023-11-22T08:26:02;5.90;98.00
4505;DHT22;2265;48.794;9.520;2023-11-22T08:28:30;5.90;98.00
4505;DHT22;2265;48.794;9.520;2023-11-22T08:30:57;5.90;98.00
4505;DHT22;2265;48.794;9.520;2023-11-22T08:33:24;5.90;98.00
4505;DHT22;2265;48.794;9.520;2023-11-22T08:35:51;5.90;98.00
4505;DHT22;2265;48.794;9.520;2023-11-22T08:38:24;5.90;98.00
4505;DHT22;2265;48.794;9.520;2023-11-22T08:40:52;5.80;98.00
4505;DHT22;2265;48.794;9.520;2023-11-22T08:43:22;5.70;98.00
4505;DHT22;2265;48.794;9.520;2023-11-22T08:45:50;5.60;98.00
4505;DHT22;2265;48.794;9.520;2023-11-22T08:48:17;5.60;98.00
4505;DHT22;2265;48.794;9.520;2023-11-22T08:50:45;5.50;98.00
4505;DHT22;2265;48.794;9.520;2023-11-22T08:53:14;5.50;98.00
4505;DHT22;2265;48.794;9.520;2023-11-22T08:55:41;5.50;98.00
4505;DHT22;2265;48.794;9.520;2023-11-22T08:58:10;5.60;98.00
4505;DHT22;2265;48.794;9.520;2023-11-22T09:00:38;5.60;98.00
4505;DHT22;2265;48.794;9.520;2023-11-22T09:03:07;5.30;98.00
4505;DHT22;2265;48.794;9.520;2023-11-22T09:05:36;5.20;98.00
4505;DHT22;2265;48.794;9.520;2023-11-22T09:08:03;5.10;98.00
4505;DHT22;2265;48.794;9.520;2023-11-22T09:10:30;5.00;98.00
4505;DHT22;2265;48.794;9.520;2023-11-22T09:12:57;4.90;98.00
4505;DHT22;2265;48.794;9.520;2023-11-22T09:15:25;4.70;98.00
4505;DHT22;2265;48.794;9.520;2023-11-22T09:17:56;4.70;98.00
4505;DHT22;2265;48.794;9.520;2023-11-22T09:20:23;4.60;98.00
4505;DHT22;2265;48.794;9.520;2023-11-22T09:22:52;4.70;98.00
4505;DHT22;2265;48.794;9.520;2023-11-22T09:25:21;4.70;98.00
4505;DHT22;2265;48.794;9.520;2023-11-22T09:27:49;4.80;98.00
4505;DHT22;2265;48.794;9.520;2023-11-22T09:30:20;5.00;98.00
4505;DHT22;2265;48.794;9.520;2023-11-22T09:33:03;5.00;98.00
4505;DHT22;2265;48.794;9.520;2023-11-22T09:35:31;5.10;98.00
4505;DHT22;2265;48.794;9.520;2023-11-22T09:38:02;5.30;98.00
4505;DHT22;2265;48.794;9.520;2023-11-22T09:40:29;5.50;98.00
4505;DHT22;2265;48.794;9.520;2023-11-22T09:42:57;5.80;98.00
4505;DHT22;2265;48.794;9.520;2023-11-22T09:45:26;6.50;98.00
4505;DHT22;2265;48.794;9.520;2023-11-22T09:47:53;7.20;98.00
4505;DHT22;2265;48.794;9.520;2023-11-22T09:50:29;7.50;98.00
4505;DHT22;2265;48.794;9.520;2023-11-22T09:53:01;7.80;98.00
4505;DHT22;2265;48.794;9.520;2023-11-22T09:55:31;7.60;98.00
4505;DHT22;2265;48.794;9.520;2023-11-22T09:58:07;7.10;98.00
4505;DHT22;2265;48.794;9.520;2023-11-22T10:00:35;7.00;98.00
4505;DHT22;2265;48.794;9.520;2023-11-22T10:03:04;6.80;98.00
4505;DHT22;2265;48.794;9.520;2023-11-22T10:05:33;6.60;98.00
4505;DHT22;2265;48.794;9.520;2023-11-22T10:08:01;6.40;98.00
4505;DHT22;2265;48.794;9.520;2023-11-22T10:10:31;6.10;98.00
4505;DHT22;2265;48.794;9.520;2023-11-22T10:12:59;5.90;98.00
4505;DHT22;2265;48.794;9.520;2023-11-22T10:15:28;5.70;98.00
4505;DHT22;2265;48.794;9.520;2023-11-22T10:17:56;5.50;98.00
4505;DHT22;2265;48.794;9.520;2023-11-22T10:20:24;5.40;98.00
4505;DHT22;2265;48.794;9.520;2023-11-22T10:22:53;5.20;98.00
4505;DHT22;2265;48.794;9.520;2023-11-22T10:25:21;5.10;98.00
4505;DHT22;2265;48.794;9.520;2023-11-22T10:27:48;5.10;98.00
4505;DHT22;2265;48.794;9.520;2023-11-22T10:30:17;5.20;98.00
4505;DHT22;2265;48.794;9.520;2023-11-22T10:32:45;5.20;98.00
4505;DHT22;2265;48.794;9.520;2023-11-22T10:35:12;5.00;98.00
4505;DHT22;2265;48.794;9.520;2023-11-22T10:37:41;5.00;98.00
4505;DHT22;2265;48.794;9.520;2023-11-22T10:40:12;5.00;98.00
4505;DHT22;2265;48.794;9.520;2023-11-22T10:42:40;5.00;98.00
4505;DHT22;2265;48.794;9.520;2023-11-22T10:45:09;5.00;98.00
4505;DHT22;2265;48.794;9.520;2023-11-22T10:47:38;4.90;98.00
4505;DHT22;2265;48.794;9.520;2023-11-22T10:50:08;4.80;98.00
4505;DHT22;2265;48.794;9.520;2023-11-22T10:52:36;4.90;98.00
4505;DHT22;2265;48.794;9.520;2023-11-22T10:55:05;4.90;98.00
4505;DHT22;2265;48.794;9.520;2023-11-22T10:57:39;4.90;98.00
4505;DHT22;2265;48.794;9.520;2023-11-22T11:00:08;5.00;98.00
4505;DHT22;2265;48.794;9.520;2023-11-22T11:02:41;5.00;98.00
4505;DHT22;2265;48.794;9.520;2023-11-22T11:05:15;4.90;98.00
4505;DHT22;2265;48.794;9.520;2023-11-22T11:07:48;5.00;98.00
4505;DHT22;2265;48.794;9.520;2023-11-22T11:10:19;5.20;98.00
4505;DHT22;2265;48.794;9.520;2023-11-22T11:12:52;5.20;98.00
4505;DHT22;2265;48.794;9.520;2023-11-22T11:15:21;5.20;98.00
4505;DHT22;2265;48.794;9.520;2023-11-22T11:17:49;5.20;98.00
4505;DHT22;2265;48.794;9.520;2023-11-22T11:20:17;5.40;98.00
4505;DHT22;2265;48.794;9.520;2023-11-22T11:22:47;5.40;98.00
4505;DHT22;2265;48.794;9.520;2023-11-22T11:25:15;5.40;98.00
4505;DHT22;2265;48.794;9.520;2023-11-22T11:27:44;5.20;98.00
4505;DHT22;2265;48.794;9.520;2023-11-22T11:30:44;5.30;98.00
4505;DHT22;2265;48.794;9.520;2023-11-22T11:33:12;5.40;98.00
4505;DHT22;2265;48.794;9.520;2023-11-22T11:35:44;5.50;98.00
4505;DHT22;2265;48.794;9.520;2023-11-22T11:38:15;5.50;98.00
4505;DHT22;2265;48.794;9.520;2023-11-22T11:40:43;5.30;98.00
4505;DHT22;2265;48.794;9.520;2023-11-22T11:43:13;5.30;98.00
4505;DHT22;2265;48.794;9.520;2023-11-22T11:45:41;5.20;98.00
4505;DHT22;2265;48.794;9.520;2023-11-22T11:48:13;5.40;98.00
4505;DHT22;2265;48.794;9.520;2023-11-22T11:50:41;5.40;98.00
4505;DHT22;2265;48.794;9.520;2023-11-22T11:53:08;5.50;98.00
4505;DHT22;2265;48.794;9.520;2023-11-22T11:55:36;5.60;98.00
4505;DHT22;2265;48.794;9.520;2023-11-22T11:58:07;5.70;98.00
4505;DHT22;2265;48.794;9.520;2023-11-22T12:00:35;5.70;98.00
4505;DHT22;2265;48.794;9.520;2023-11-22T12:03:08;5.60;98.00
4505;DHT22;2265;48.794;9.520;2023-11-22T12:05:39;5.50;98.00
4505;DHT22;2265;48.794;9.520;2023-11-22T12:08:06;5.50;98.00
4505;DHT22;2265;48.794;9.520;2023-11-22T12:10:34;5.60;98.00
4505;DHT22;2265;48.794;9.520;2023-11-22T12:13:01;5.60;98.00
4505;DHT22;2265;48.794;9.520;2023-11-22T12:15:28;5.60;98.00
4505;DHT22;2265;48.794;9.520;2023-11-22T12:17:55;5.50;98.00
4505;DHT22;2265;48.794;9.520;2023-11-22T12:20:24;5.50;98.00
4505;DHT22;2265;48.794;9.520;2023-11-22T12:22:53;5.50;98.00
4505;DHT22;2265;48.794;9.520;2023-11-22T12:25:20;5.50;98.00
4505;DHT22;2265;48.794;9.520;2023-11-22T12:27:48;5.50;98.00
4505;DHT22;2265;48.794;9.520;2023-11-22T12:30:28;5.50;98.00
4505;DHT22;2265;48.794;9.520;2023-11-22T12:32:59;5.50;98.00
4505;DHT22;2265;48.794;9.520;2023-11-22T12:35:28;5.60;98.00
4505;DHT22;2265;48.794;9.520;2023-11-22T12:38:00;5.60;98.00
4505;DHT22;2265;48.794;9.520;2023-11-22T12:40:28;5.50;98.00
4505;DHT22;2265;48.794;9.520;2023-11-22T12:42:57;5.40;98.00
4505;DHT22;2265;48.794;9.520;2023-11-22T12:45:25;5.40;98.00
4505;DHT22;2265;48.794;9.520;2023-11-22T12:47:54;5.30;98.00
4505;DHT22;2265;48.794;9.520;2023-11-22T12:50:35;5.40;98.00
4505;DHT22;2265;48.794;9.520;2023-11-22T12:53:12;5.30;98.00
4505;DHT22;2265;48.794;9.520;2023-11-22T12:55:42;5.10;98.00
4505;DHT22;2265;48.794;9.520;2023-11-22T12:58:12;5.40;98.00
4505;DHT22;2265;48.794;9.520;2023-11-22T13:00:39;5.30;98.00
4505;DHT22;2265;48.794;9.520;2023-11-22T13:03:07;5.40;98.00
4505;DHT22;2265;48.794;9.520;2023-11-22T13:05:36;5.20;98.00
4505;DHT22;2265;48.794;9.520;2023-11-22T13:08:03;5.30;98.00
4505;DHT22;2265;48.794;9.520;2023-11-22T13:10:32;5.40;98.00
4505;DHT22;2265;48.794;9.520;2023-11-22T13:12:59;5.50;98.00
4505;DHT22;2265;48.794;9.520;2023-11-22T13:15:27;5.50;98.00
4505;DHT22;2265;48.794;9.520;2023-11-22T13:17:56;5.40;98.00
4505;DHT22;2265;48.794;9.520;2023-11-22T13:20:24;5.40;98.00
4505;DHT22;2265;48.794;9.520;2023-11-22T13:22:53;5.50;98.00
4505;DHT22;2265;48.794;9.520;2023-11-22T13:25:20;5.30;98.00
4505;DHT22;2265;48.794;9.520;2023-11-22T13:27:51;5.30;98.00
4505;DHT22;2265;48.794;9.520;2023-11-22T13:30:19;5.30;98.00
4505;DHT22;2265;48.794;9.520;2023-11-22T13:32:48;5.40;98.00
4505;DHT22;2265;48.794;9.520;2023-11-22T13:35:17;5.40;98.00
4505;DHT22;2265;48.794;9.520;2023-11-22T13:37:45;5.50;98.00
4505;DHT22;2265;48.794;9.520;2023-11-22T13:40:14;5.50;98.00
4505;DHT22;2265;48.794;9.520;2023-11-22T13:42:43;5.50;98.00
4505;DHT22;2265;48.794;9.520;2023-11-22T13:45:13;5.50;98.00
4505;DHT22;2265;48.794;9.520;2023-11-22T13:47:43;5.50;98.00
4505;DHT22;2265;48.794;9.520;2023-11-22T13:50:12;5.50;98.00
4505;DHT22;2265;48.794;9.520;2023-11-22T13:52:41;5.50;98.00
4505;DHT22;2265;48.794;9.520;2023-11-22T13:55:08;5.50;98.00
4505;DHT22;2265;48.794;9.520;2023-11-22T13:57:38;5.50;98.00
4505;DHT22;2265;48.794;9.520;2023-11-22T14:00:06;5.50;98.00
4505;DHT22;2265;48.794;9.520;2023-11-22T14:02:39;5.50;98.00
4505;DHT22;2265;48.794;9.520;2023-11-22T14:05:08;5.40;98.00
4505;DHT22;2265;48.794;9.520;2023-11-22T14:07:38;5.30;98.00
4505;DHT22;2265;48.794;9.520;2023-11-22T14:10:07;5.10;98.00
4505;DHT22;2265;48.794;9.520;2023-11-22T14:15:03;5.10;98.00
4505;DHT22;2265;48.794;9.520;2023-11-22T14:17:31;5.20;98.00
4505;DHT22;2265;48.794;9.520;2023-11-22T14:20:00;5.40;98.00
4505;DHT22;2265;48.794;9.520;2023-11-22T14:22:28;5.40;98.00
4505;DHT22;2265;48.794;9.520;2023-11-22T14:24:56;5.40;98.00
4505;DHT22;2265;48.794;9.520;2023-11-22T14:27:23;5.50;98.00
4505;DHT22;2265;48.794;9.520;2023-11-22T14:29:51;5.50;98.00
4505;DHT22;2265;48.794;9.520;2023-11-22T14:32:20;5.40;98.00
4505;DHT22;2265;48.794;9.520;2023-11-22T14:34:47;5.30;98.00
4505;DHT22;2265;48.794;9.520;2023-11-22T14:37:19;5.30;98.00
4505;DHT22;2265;48.794;9.520;2023-11-22T14:39:46;5.40;98.00
4505;DHT22;2265;48.794;9.520;2023-11-22T14:42:14;5.30;98.00
4505;DHT22;2265;48.794;9.520;2023-11-22T14:44:42;5.30;98.00
4505;DHT22;2265;48.794;9.520;2023-11-22T14:47:09;5.40;98.00
4505;DHT22;2265;48.794;9.520;2023-11-22T14:49:42;5.50;98.00
4505;DHT22;2265;48.794;9.520;2023-11-22T14:52:10;5.40;98.00
4505;DHT22;2265;48.794;9.520;2023-11-22T14:54:38;5.40;98.00
4505;DHT22;2265;48.794;9.520;2023-11-22T14:57:06;5.20;98.00
4505;DHT22;2265;48.794;9.520;2023-11-22T14:59:35;5.30;98.00
4505;DHT22;2265;48.794;9.520;2023-11-22T15:02:02;5.20;98.00
4505;DHT22;2265;48.794;9.520;2023-11-22T15:20:32;5.00;98.00
4505;DHT22;2265;48.794;9.520;2023-11-22T15:22:59;4.40;98.00
4505;DHT22;2265;48.794;9.520;2023-11-22T15:25:25;4.60;98.00
4505;DHT22;2265;48.794;9.520;2023-11-22T15:27:52;4.70;98.00
4505;DHT22;2265;48.794;9.520;2023-11-22T15:30:18;4.60;98.00
4505;DHT22;2265;48.794;9.520;2023-11-22T15:32:45;4.60;98.00
4505;DHT22;2265;48.794;9.520;2023-11-22T15:35:13;4.70;98.00
4505;DHT22;2265;48.794;9.520;2023-11-22T15:37:41;4.90;98.00
4505;DHT22;2265;48.794;9.520;2023-11-22T15:40:09;4.80;98.00
4505;DHT22;2265;48.794;9.520;2023-11-22T15:42:38;4.80;98.00
4505;DHT22;2265;48.794;9.520;2023-11-22T15:45:07;4.80;98.00
4505;DHT22;2265;48.794;9.520;2023-11-22T15:47:34;4.90;98.00
4505;DHT22;2265;48.794;9.520;2023-11-22T15:50:03;4.60;98.00
4505;DHT22;2265;48.794;9.520;2023-11-22T15:52:32;4.60;98.00
4505;DHT22;2265;48.794;9.520;2023-11-22T15:55:01;4.50;98.00
4505;DHT22;2265;48.794;9.520;2023-11-22T15:57:29;4.60;98.00
4505;DHT22;2265;48.794;9.520;2023-11-22T15:59:56;4.50;98.00
4505;DHT22;2265;48.794;9.520;2023-11-22T16:02:23;4.50;98.00
4505;DHT22;2265;48.794;9.520;2023-11-22T16:04:50;4.60;98.00
4505;DHT22;2265;48.794;9.520;2023-11-22T16:07:17;4.80;98.00
4505;DHT22;2265;48.794;9.520;2023-11-22T16:09:46;5.00;98.00
4505;DHT22;2265;48.794;9.520;2023-11-22T16:12:15;4.80;98.00
4505;DHT22;2265;48.794;9.520;2023-11-22T16:14:45;4.70;98.00
4505;DHT22;2265;48.794;9.520;2023-11-22T16:17:12;4.80;98.00
4505;DHT22;2265;48.794;9.520;2023-11-22T16:19:41;4.70;98.00
4505;DHT22;2265;48.794;9.520;2023-11-22T16:22:08;4.60;98.00
4505;DHT22;2265;48.794;9.520;2023-11-22T16:24:35;4.70;98.00
4505;DHT22;2265;48.794;9.520;2023-11-22T16:27:03;4.60;98.00
4505;DHT22;2265;48.794;9.520;2023-11-22T16:29:32;4.60;98.00
4505;DHT22;2265;48.794;9.520;2023-11-22T16:32:01;4.80;98.00
4505;DHT22;2265;48.794;9.520;2023-11-22T16:37:00;4.90;98.00
4505;DHT22;2265;48.794;9.520;2023-11-22T16:39:29;5.00;98.00
4505;DHT22;2265;48.794;9.520;2023-11-22T16:41:56;5.00;98.00
4505;DHT22;2265;48.794;9.520;2023-11-22T16:44:23;5.00;98.00
4505;DHT22;2265;48.794;9.520;2023-11-22T16:46:52;5.10;98.00